Time;durP1;ratioP1;P1;durP2;ratioP2;P2;SDS_P1;SDS_P2;PMS_P1;PMS_P2;Temp;Humidity;BMP_temperature;BMP_pressure;BME280_temperature;BME280_humidity;BME280_pressure;Samples;Min_cycle;Max_cycle;Signal;HPM_P1;HPM_P2
2021/05/26 00:00:24;;;;;;;4.55;3.90;;;;;;;26.17;46.78;95063.28;4934420;29;20066;-69
2021/05/26 00:02:49;;;;;;;4.35;3.95;;;;;;;26.16;47.02;95057.09;4934180;29;20095;-69
2021/05/26 00:05:15;;;;;;;4.97;4.10;;;;;;;26.17;46.95;95058.53;4934530;29;20389;-69
2021/05/26 00:07:40;;;;;;;4.13;3.72;;;;;;;26.15;46.62;95055.59;4934043;29;20803;-69
2021/05/26 00:10:07;;;;;;;4.05;3.60;;;;;;;26.15;47.09;95061.06;4934445;29;20552;-69
2021/05/26 00:12:32;;;;;;;4.50;4.10;;;;;;;26.15;47.18;95061.06;4933964;29;20118;-69
2021/05/26 00:14:58;;;;;;;4.40;3.90;;;;;;;26.15;47.12;95066.56;4934270;29;20032;-69
2021/05/26 00:17:23;;;;;;;4.80;4.10;;;;;;;26.14;46.97;95070.53;4933973;29;20083;-68
2021/05/26 00:19:49;;;;;;;4.60;4.10;;;;;;;26.10;46.98;95070.13;4934309;29;20028;-68
2021/05/26 00:22:14;;;;;;;4.35;3.80;;;;;;;26.12;47.06;95062.13;4934095;29;20031;-70
2021/05/26 00:24:40;;;;;;;4.68;3.88;;;;;;;26.06;46.85;95047.06;4934148;29;20038;-69
2021/05/26 00:27:05;;;;;;;3.85;3.50;;;;;;;26.11;46.67;95071.59;4916822;29;20035;-70
2021/05/26 00:29:31;;;;;;;4.70;4.20;;;;;;;26.11;46.75;95066.13;4933580;29;20036;-69
2021/05/26 00:31:56;;;;;;;4.93;4.10;;;;;;;26.11;47.24;95077.06;4934942;29;20122;-71
2021/05/26 00:34:22;;;;;;;4.35;3.92;;;;;;;26.11;47.22;95071.59;4934560;29;20040;-68
2021/05/26 00:36:47;;;;;;;4.28;3.88;;;;;;;26.09;46.59;95062.44;4953270;29;20169;-68
2021/05/26 00:39:12;;;;;;;4.05;3.60;;;;;;;26.09;46.83;95068.66;4952978;29;20019;-70
2021/05/26 00:41:38;;;;;;;5.07;3.97;;;;;;;26.09;46.59;95074.13;4935728;29;20030;-69
2021/05/26 00:44:04;;;;;;;4.35;3.90;;;;;;;26.09;47.25;95074.13;4952579;29;20035;-69
2021/05/26 00:46:29;;;;;;;4.15;3.80;;;;;;;26.09;46.69;95068.66;4951634;29;20034;-69
2021/05/26 00:48:54;;;;;;;5.15;4.15;;;;;;;26.10;46.65;95074.84;4952783;29;20467;-68
2021/05/26 00:51:20;;;;;;;5.75;4.82;;;;;;;26.09;46.95;95063.19;4953170;29;20338;-68
2021/05/26 00:53:45;;;;;;;4.53;4.00;;;;;;;26.07;47.02;95075.91;4952802;29;20026;-69
2021/05/26 00:56:11;;;;;;;4.82;4.30;;;;;;;26.06;47.41;95080.66;4952381;28;20039;-69
2021/05/26 00:58:36;;;;;;;4.93;4.13;;;;;;;25.92;46.93;95076.44;4950931;29;20037;-69
2021/05/26 01:01:02;;;;;;;4.20;3.80;;;;;;;26.04;47.43;95077.72;4919417;29;20086;-69
2021/05/26 01:03:28;;;;;;;4.63;4.13;;;;;;;26.04;47.06;95088.66;4952248;29;20114;-69
2021/05/26 01:05:54;;;;;;;4.82;4.32;;;;;;;26.03;47.10;95087.19;4952361;29;20047;-69
2021/05/26 01:08:20;;;;;;;5.53;4.13;;;;;;;26.05;47.25;95076.47;4935369;29;20499;-70
2021/05/26 01:10:45;;;;;;;4.35;3.95;;;;;;;26.05;47.45;95079.19;4934968;29;20054;-69
2021/05/26 01:13:11;;;;;;;4.38;3.97;;;;;;;26.03;46.68;95089.91;4952939;29;20539;-69
2021/05/26 01:15:37;;;;;;;5.50;4.03;;;;;;;26.02;47.22;95091.19;4952764;29;20030;-69
2021/05/26 01:18:27;;;;;;;5.03;3.97;;;;;;;26.00;47.00;95088.22;4935378;29;20031;-69
2021/05/26 01:20:54;;;;;;;4.63;4.00;;;;;;;25.99;46.92;95086.75;4904735;29;20040;-70
2021/05/26 01:23:20;;;;;;;4.90;4.22;;;;;;;25.91;46.70;95069.47;4897288;29;20036;-69
2021/05/26 01:25:47;;;;;;;4.50;4.10;;;;;;;26.03;47.23;95087.19;4896948;29;20051;-69
2021/05/26 01:28:12;;;;;;;4.85;4.15;;;;;;;26.01;47.38;95084.22;4896715;29;20027;-69
2021/05/26 01:30:38;;;;;;;4.85;4.45;;;;;;;25.86;46.71;95062.13;4912656;29;20186;-69
2021/05/26 01:33:03;;;;;;;4.50;4.10;;;;;;;26.00;46.87;95093.69;4913501;29;20035;-69
2021/05/26 01:35:29;;;;;;;4.50;4.10;;;;;;;26.00;47.01;95082.75;4913597;29;20067;-69
2021/05/26 01:37:54;;;;;;;4.30;3.90;;;;;;;25.99;46.66;95092.25;4913845;29;20023;-69
2021/05/26 01:40:20;;;;;;;4.30;3.80;;;;;;;25.90;47.04;95073.50;4913771;29;20408;-69
2021/05/26 01:42:45;;;;;;;4.72;4.22;;;;;;;25.97;47.07;95089.28;4912479;29;20051;-69
2021/05/26 01:45:13;;;;;;;4.55;4.15;;;;;;;25.99;47.38;95081.28;4896779;29;20028;-69
2021/05/26 01:47:39;;;;;;;4.53;4.13;;;;;;;25.98;47.45;95085.28;4913383;29;20087;-69
2021/05/26 01:50:05;;;;;;;5.65;4.03;;;;;;;25.99;47.40;95083.28;4913452;29;20024;-68
2021/05/26 01:52:31;;;;;;;4.20;3.60;;;;;;;25.99;47.35;95086.75;4913666;29;20032;-69
2021/05/26 01:54:56;;;;;;;4.72;3.90;;;;;;;25.97;47.00;95083.81;4913262;29;20134;-68
2021/05/26 01:57:21;;;;;;;4.22;3.83;;;;;;;25.98;47.44;95085.28;4913335;29;20024;-68
2021/05/26 01:59:47;;;;;;;4.40;3.97;;;;;;;25.95;47.30;95078.13;4913290;29;20031;-68
2021/05/26 02:02:12;;;;;;;4.28;3.88;;;;;;;25.95;46.71;95089.06;4913212;29;20498;-69
2021/05/26 02:04:38;;;;;;;4.40;4.00;;;;;;;25.95;47.47;95075.38;4908801;29;20534;-70
2021/05/26 02:07:06;;;;;;;4.32;3.88;;;;;;;25.96;47.37;95076.13;4894328;29;20520;-70
2021/05/26 02:09:32;;;;;;;4.57;4.18;;;;;;;25.98;47.14;95079.09;4893707;29;20037;-68
2021/05/26 02:14:41;;;;;;;4.47;3.95;;;;;;;25.92;46.84;95076.44;4894403;29;20140;-68
2021/05/26 02:17:07;;;;;;;4.25;3.83;;;;;;;25.95;46.80;95075.38;4894168;29;20036;-68
2021/05/26 02:19:32;;;;;;;4.25;3.85;;;;;;;25.96;47.48;95073.38;4894183;29;20032;-69
2021/05/26 02:22:00;;;;;;;4.65;4.15;;;;;;;25.82;47.08;95056.19;4893987;29;20125;-69
2021/05/26 02:24:25;;;;;;;4.20;3.55;;;;;;;25.92;47.03;95076.44;4892955;29;20107;-68
2021/05/26 02:26:51;;;;;;;4.40;4.00;;;;;;;25.91;47.54;95074.94;4893762;29;20063;-69
2021/05/26 02:29:16;;;;;;;4.30;3.90;;;;;;;25.88;47.29;95076.00;4894314;29;20047;-68
2021/05/26 02:31:42;;;;;;;4.20;3.80;;;;;;;25.91;47.54;95087.91;4893914;29;20029;-68
2021/05/26 02:34:07;;;;;;;4.03;3.63;;;;;;;25.91;47.31;95080.41;4900240;29;20024;-68
2021/05/26 02:36:32;;;;;;;4.95;3.95;;;;;;;25.92;47.28;95081.19;4906770;29;20048;-68
2021/05/26 02:38:58;;;;;;;4.47;3.88;;;;;;;25.92;47.40;95081.91;4893757;29;20033;-69
2021/05/26 02:41:23;;;;;;;4.10;3.70;;;;;;;25.80;46.92;95064.22;4893512;29;20036;-70
2021/05/26 02:43:49;;;;;;;4.28;3.88;;;;;;;25.91;46.98;95091.38;4892493;29;20416;-70
2021/05/26 02:46:14;;;;;;;4.03;3.63;;;;;;;25.91;47.07;95090.63;4892286;29;20424;-70
2021/05/26 02:48:40;;;;;;;4.10;3.70;;;;;;;25.79;47.05;95073.66;4893501;29;20523;-69
2021/05/26 02:51:05;;;;;;;4.40;4.00;;;;;;;25.82;46.89;95088.31;4892295;29;20024;-70
2021/05/26 02:53:31;;;;;;;4.97;4.05;;;;;;;25.91;47.65;95107.78;4892621;29;20560;-69
2021/05/26 02:55:56;;;;;;;4.18;3.55;;;;;;;25.90;46.83;95106.31;4893880;29;20092;-70
2021/05/26 02:58:21;;;;;;;5.35;3.97;;;;;;;25.91;47.55;95110.53;4893405;29;20061;-69
2021/05/26 03:00:47;;;;;;;3.95;3.55;;;;;;;25.90;47.39;95122.75;4893725;29;20075;-68
2021/05/26 03:03:12;;;;;;;4.45;3.85;;;;;;;25.90;47.52;95128.22;4907581;29;20060;-68
2021/05/26 03:05:38;;;;;;;4.38;3.97;;;;;;;25.88;47.14;95130.00;4900101;29;20082;-68
2021/05/26 03:08:03;;;;;;;4.05;3.60;;;;;;;25.89;47.73;95132.22;4910347;29;20052;-69
2021/05/26 03:10:29;;;;;;;4.00;3.70;;;;;;;25.88;47.47;95130.72;4912033;29;20043;-70
2021/05/26 03:12:54;;;;;;;3.92;3.42;;;;;;;25.88;46.86;95141.66;4909445;29;20465;-71
2021/05/26 03:15:20;;;;;;;4.22;3.65;;;;;;;25.81;47.22;95136.06;4910385;29;20464;-69
2021/05/26 03:17:45;;;;;;;3.72;3.22;;;;;;;25.89;47.41;95148.63;4910291;29;20024;-70
2021/05/26 03:20:13;;;;;;;3.78;3.47;;;;;;;25.91;47.15;95156.31;4910591;29;20039;-70
2021/05/26 03:22:38;;;;;;;6.28;4.05;;;;;;;25.79;47.58;95150.28;4896084;29;20028;-71
2021/05/26 03:25:05;;;;;;;4.32;3.50;;;;;;;25.92;47.66;95158.53;4881904;29;20032;-71
2021/05/26 03:27:38;;;;;;;4.75;3.55;;;;;;;25.73;47.11;95150.91;4896990;29;20028;-70
2021/05/26 03:30:10;;;;;;;3.83;3.45;;;;;;;25.90;47.35;95165.78;4896554;29;20024;-68
2021/05/26 03:32:37;;;;;;;4.57;4.18;;;;;;;25.89;47.75;95165.03;4911115;29;20514;-70
2021/05/26 03:35:02;;;;;;;3.88;3.45;;;;;;;25.92;47.61;95163.28;4888383;29;20032;-70
2021/05/26 03:37:28;;;;;;;4.13;3.63;;;;;;;25.94;47.29;95177.88;4908185;29;20028;-68
2021/05/26 03:39:54;;;;;;;3.88;3.47;;;;;;;25.94;47.16;95166.94;4901849;29;20083;-72
2021/05/26 03:42:19;;;;;;;4.20;3.75;;;;;;;25.94;47.91;95166.94;4900164;29;20036;-70
2021/05/26 03:44:45;;;;;;;4.05;3.63;;;;;;;25.94;47.64;95172.41;4908431;29;20043;-69
2021/05/26 03:47:10;;;;;;;3.97;3.50;;;;;;;25.86;47.60;95182.50;4898835;29;20021;-69
2021/05/26 03:49:36;;;;;;;4.30;3.60;;;;;;;25.98;47.52;95194.75;4880393;29;20412;-70
2021/05/26 03:52:01;;;;;;;4.22;3.42;;;;;;;25.98;47.41;95183.81;4896978;29;20084;-69
2021/05/26 03:54:27;;;;;;;4.20;3.80;;;;;;;25.98;47.63;95188.56;4902581;29;20043;-69
2021/05/26 03:56:52;;;;;;;4.80;3.78;;;;;;;26.00;47.76;95189.50;4906386;29;20024;-69
2021/05/26 03:59:17;;;;;;;3.85;3.30;;;;;;;26.01;47.46;95198.47;4907222;29;20039;-70
2021/05/26 04:01:43;;;;;;;5.03;3.92;;;;;;;26.01;47.46;95210.13;4903876;29;20039;-70
2021/05/26 04:04:08;;;;;;;4.07;3.65;;;;;;;26.02;47.09;95211.63;4925435;29;20076;-72
2021/05/26 04:06:37;;;;;;;4.25;3.85;;;;;;;26.03;47.97;95204.88;4930703;29;20047;-72
2021/05/26 04:09:03;;;;;;;4.47;4.07;;;;;;;26.05;47.68;95198.88;4924838;29;20095;-73
2021/05/26 04:11:28;;;;;;;5.40;4.65;;;;;;;25.85;47.29;95159.13;4929334;29;20032;-72
2021/05/26 04:13:54;;;;;;;5.90;4.63;;;;;;;26.06;47.82;95189.41;4891800;29;20031;-71
2021/05/26 04:16:19;;;;;;;6.93;5.03;;;;;;;25.95;47.01;95190.31;4921455;29;20038;-72
2021/05/26 04:18:44;;;;;;;5.82;5.22;;;;;;;26.08;47.77;95197.81;4908788;29;20078;-71
2021/05/26 04:21:10;;;;;;;8.68;5.95;;;;;;;26.08;48.02;95198.56;4926819;29;20032;-69
2021/05/26 04:23:36;;;;;;;6.10;5.43;;;;;;;26.12;47.15;95199.00;4927054;29;20036;-70
2021/05/26 04:26:02;;;;;;;5.88;5.28;;;;;;;26.17;47.56;95205.63;4929069;29;20034;-72
2021/05/26 04:28:27;;;;;;;6.05;5.43;;;;;;;26.25;46.90;95206.50;4929584;29;20040;-71
2021/05/26 04:30:53;;;;;;;5.80;5.20;;;;;;;26.34;46.88;95206.88;4929496;29;20554;-69
2021/05/26 04:33:18;;;;;;;6.63;5.63;;;;;;;26.42;47.01;95210.47;4929285;29;20038;-70
2021/05/26 04:35:44;;;;;;;8.75;5.75;;;;;;;26.53;46.33;95216.50;4914219;29;20090;-69
2021/05/26 04:38:11;;;;;;;8.68;5.43;;;;;;;26.58;46.53;95212.19;4915028;29;20035;-70
2021/05/26 04:40:36;;;;;;;7.40;4.97;;;;;;;26.59;45.75;95180.75;4932021;29;20051;-70
2021/05/26 04:43:02;;;;;;;6.78;5.35;;;;;;;26.81;45.75;95214.69;4913292;29;20035;-71
2021/05/26 04:45:28;;;;;;;7.38;5.32;;;;;;;26.77;45.71;95214.28;4926981;29;20024;-70
2021/05/26 04:47:53;;;;;;;6.45;5.35;;;;;;;26.96;45.59;95228.66;4915282;29;20028;-72
2021/05/26 04:50:18;;;;;;;6.30;4.95;;;;;;;27.04;44.83;95237.72;4929047;29;20024;-75
2021/05/26 04:52:44;;;;;;;6.00;4.50;;;;;;;27.10;44.57;95232.13;4911914;29;20032;-70
2021/05/26 04:55:10;;;;;;;5.20;4.70;;;;;;;27.17;44.52;95240.44;4874431;29;20419;-75
2021/05/26 04:57:36;;;;;;;5.20;4.43;;;;;;;27.27;44.34;95261.44;4898831;29;20062;-72
2021/05/26 05:00:02;;;;;;;5.95;4.80;;;;;;;27.40;44.15;95246.97;4909695;29;20036;-70
2021/05/26 05:02:28;;;;;;;6.57;4.50;;;;;;;27.44;43.69;95241.88;4932284;29;20476;-69
2021/05/26 05:04:53;;;;;;;5.40;4.70;;;;;;;27.41;43.29;95248.44;4927657;29;20058;-74
2021/05/26 05:07:19;;;;;;;7.97;4.90;;;;;;;27.42;43.42;95222.50;4932236;29;20046;-70
2021/05/26 05:09:44;;;;;;;5.82;4.40;;;;;;;27.65;42.87;95245.47;4910382;29;20040;-73
2021/05/26 05:12:10;;;;;;;6.63;4.47;;;;;;;27.71;42.51;95232.34;4932544;29;20024;-72
2021/05/26 05:14:35;;;;;;;6.18;4.47;;;;;;;27.63;42.43;95237.03;4927844;29;20031;-70
2021/05/26 05:17:01;;;;;;;6.13;4.22;;;;;;;27.79;42.33;95245.63;4931214;29;20480;-69
2021/05/26 05:19:26;;;;;;;5.75;4.20;;;;;;;27.84;42.26;95250.25;4930306;29;20102;-70
2021/05/26 05:21:51;;;;;;;6.15;4.75;;;;;;;27.82;41.91;95239.06;4929573;29;20035;-70
2021/05/26 05:24:17;;;;;;;6.63;4.32;;;;;;;27.89;41.98;95241.16;4927677;29;20024;-71
2021/05/26 05:26:43;;;;;;;6.70;4.78;;;;;;;27.97;42.07;95244.72;4929357;29;20035;-70
2021/05/26 05:29:09;;;;;;;5.75;4.50;;;;;;;28.01;42.67;95244.38;4911744;29;20027;-72
2021/05/26 05:31:34;;;;;;;6.97;4.78;;;;;;;27.97;42.54;95255.69;4914542;29;20043;-72
2021/05/26 05:33:59;;;;;;;7.95;4.93;;;;;;;28.09;43.43;95262.44;4927217;29;20135;-74
2021/05/26 05:36:25;;;;;;;6.10;4.32;;;;;;;28.14;42.97;95256.06;4931183;29;20512;-71
2021/05/26 05:38:50;;;;;;;6.82;4.00;;;;;;;28.11;43.85;95254.41;4931439;29;20393;-72
2021/05/26 05:41:16;;;;;;;9.43;4.55;;;;;;;28.09;43.49;95251.47;4931850;29;20039;-72
2021/05/26 05:43:41;;;;;;;5.45;4.10;;;;;;;28.14;42.26;95258.81;4930574;29;20513;-72
2021/05/26 05:46:07;;;;;;;6.82;3.88;;;;;;;28.07;41.39;95253.97;4914060;29;20039;-73
2021/05/26 05:48:32;;;;;;;7.15;4.60;;;;;;;28.11;41.17;95254.41;4927614;29;20047;-72
2021/05/26 05:50:57;;;;;;;5.95;3.75;;;;;;;28.15;41.00;95254.09;4930305;29;20028;-73
2021/05/26 05:53:23;;;;;;;6.45;4.35;;;;;;;28.19;41.10;95260.72;4930840;29;20024;-74
2021/05/26 05:55:48;;;;;;;6.75;4.03;;;;;;;28.24;40.99;95263.31;4931802;29;20039;-73
2021/05/26 05:58:22;;;;;;;6.28;4.18;;;;;;;28.30;40.35;95266.69;4913817;29;20472;-74
2021/05/26 06:00:47;;;;;;;5.57;4.30;;;;;;;28.35;40.12;95256.81;4930869;29;20046;-71
2021/05/26 06:03:13;;;;;;;5.72;4.35;;;;;;;28.32;40.04;95258.63;4930881;29;20048;-68
2021/05/26 06:05:38;;;;;;;5.10;3.85;;;;;;;28.50;39.67;95262.44;4930765;29;20495;-69
2021/05/26 06:08:05;;;;;;;5.50;3.72;;;;;;;28.45;39.75;95255.81;4923509;29;20043;-70
2021/05/26 06:10:30;;;;;;;4.72;3.45;;;;;;;28.36;39.47;95261.06;4925562;29;20111;-70
2021/05/26 06:12:58;;;;;;;4.78;3.80;;;;;;;28.33;39.74;95259.38;4907596;29;20028;-69
2021/05/26 06:15:23;;;;;;;6.32;3.50;;;;;;;28.37;39.92;95265.25;4926923;29;20035;-69
2021/05/26 06:17:49;;;;;;;5.10;3.65;;;;;;;28.39;40.05;95268.22;4931816;29;20031;-69
2021/05/26 06:20:14;;;;;;;8.63;4.45;;;;;;;28.33;40.11;95275.88;4927970;29;20032;-69
2021/05/26 06:22:40;;;;;;;6.15;3.90;;;;;;;28.25;40.33;95281.28;4928934;29;20396;-70
2021/05/26 06:25:06;;;;;;;6.03;3.35;;;;;;;28.18;39.99;95264.72;4904463;29;20400;-71
2021/05/26 06:27:32;;;;;;;5.25;3.80;;;;;;;28.11;40.07;95267.41;4922720;29;20035;-70
2021/05/26 06:29:57;;;;;;;6.97;3.50;;;;;;;28.03;39.91;95269.31;4927991;29;20684;-70
2021/05/26 06:32:23;;;;;;;5.43;3.58;;;;;;;27.99;40.51;95269.63;4930535;29;20032;-68
2021/05/26 06:34:50;;;;;;;5.95;3.10;;;;;;;27.93;40.43;95265.53;4928340;29;20083;-69
2021/05/26 06:37:15;;;;;;;4.15;3.22;;;;;;;27.90;40.49;95278.31;4929167;29;20027;-69
2021/05/26 06:39:41;;;;;;;5.22;3.75;;;;;;;27.81;40.79;95265.03;4908856;29;20535;-69
2021/05/26 06:42:06;;;;;;;4.53;3.10;;;;;;;27.80;41.05;95263.59;4913209;29;20039;-70
2021/05/26 06:44:32;;;;;;;5.07;3.30;;;;;;;27.75;41.25;95267.16;4926981;29;20400;-71
2021/05/26 06:46:57;;;;;;;5.57;3.70;;;;;;;27.61;41.47;95245.03;4929579;29;20423;-70
2021/05/26 06:49:23;;;;;;;4.30;3.28;;;;;;;27.59;41.17;95247.59;4928293;29;20031;-69
2021/05/26 06:51:48;;;;;;;5.97;3.25;;;;;;;27.64;41.41;95257.69;4929693;29;20036;-68
2021/05/26 06:54:14;;;;;;;3.83;3.20;;;;;;;27.46;41.69;95233.88;4925794;29;20032;-71
2021/05/26 06:56:39;;;;;;;4.75;3.25;;;;;;;27.57;41.43;95250.13;4911252;29;20075;-69
2021/05/26 06:59:05;;;;;;;4.57;3.38;;;;;;;27.51;41.61;95252.25;4925344;29;20035;-70
2021/05/26 07:01:30;;;;;;;3.88;3.10;;;;;;;27.45;41.77;95257.09;4911294;29;20026;-70
2021/05/26 07:03:57;;;;;;;5.65;3.03;;;;;;;27.43;41.88;95256.88;4907670;29;20047;-69
2021/05/26 07:06:23;;;;;;;4.35;3.40;;;;;;;27.39;42.03;95251.72;4928116;29;20043;-69
2021/05/26 07:08:48;;;;;;;4.68;3.22;;;;;;;27.37;41.94;95231.56;4925481;29;20126;-69
2021/05/26 07:11:14;;;;;;;5.97;3.40;;;;;;;27.32;42.29;95252.38;4930026;29;20030;-70
2021/05/26 07:13:39;;;;;;;5.30;3.55;;;;;;;27.27;42.15;95249.72;4907108;29;20043;-69
2021/05/26 07:16:05;;;;;;;4.07;3.00;;;;;;;27.21;42.43;95242.88;4929486;29;20031;-69
2021/05/26 07:18:32;;;;;;;4.93;3.15;;;;;;;27.20;42.56;95244.88;4908047;29;20020;-70
2021/05/26 07:20:58;;;;;;;4.57;3.58;;;;;;;27.19;42.60;95248.91;4929544;29;20044;-69
2021/05/26 07:23:23;;;;;;;4.32;2.90;;;;;;;27.15;42.72;95237.50;4909351;29;20040;-70
2021/05/26 07:25:48;;;;;;;4.60;2.80;;;;;;;27.09;42.79;95239.63;4928787;29;20051;-68
2021/05/26 07:28:14;;;;;;;5.07;3.10;;;;;;;27.05;42.87;95239.19;4924675;29;20063;-68
2021/05/26 07:30:39;;;;;;;6.03;3.03;;;;;;;27.05;42.73;95244.66;4928769;29;20090;-68
2021/05/26 07:33:05;;;;;;;5.03;3.20;;;;;;;27.06;42.55;95240.66;4908341;29;20119;-69
2021/05/26 07:35:31;;;;;;;4.93;3.28;;;;;;;27.03;42.79;95236.25;4917939;29;20047;-69
2021/05/26 07:37:56;;;;;;;4.40;3.10;;;;;;;26.97;43.07;95241.09;4911596;29;20017;-69
2021/05/26 07:40:22;;;;;;;3.85;2.83;;;;;;;26.95;43.04;95235.41;4911648;29;20024;-69
2021/05/26 07:42:47;;;;;;;4.53;2.90;;;;;;;26.97;43.16;95249.31;4911091;29;20048;-70
2021/05/26 07:45:13;;;;;;;4.50;2.90;;;;;;;26.94;43.60;95239.41;4911877;29;20488;-69
2021/05/26 07:47:38;;;;;;;4.80;3.20;;;;;;;26.90;43.21;95238.97;4922963;29;20032;-70
2021/05/26 07:50:04;;;;;;;5.05;3.35;;;;;;;26.90;43.47;95244.47;4930845;29;20031;-69
2021/05/26 07:52:30;;;;;;;3.80;3.13;;;;;;;26.87;43.16;95228.31;4930440;29;20027;-70
2021/05/26 07:54:56;;;;;;;3.28;2.88;;;;;;;26.89;43.04;95234.78;4930530;29;20419;-68
2021/05/26 07:57:21;;;;;;;4.00;3.05;;;;;;;26.89;43.12;95232.03;4913363;29;20032;-69
2021/05/26 07:59:47;;;;;;;3.75;2.80;;;;;;;26.83;43.57;95223.16;4929210;29;20877;-69
2021/05/26 08:02:13;;;;;;;5.25;2.97;;;;;;;26.82;43.24;95220.94;4935165;29;20027;-68
2021/05/26 08:04:39;;;;;;;3.90;2.83;;;;;;;26.73;43.46;95213.13;4933541;29;20062;-68
2021/05/26 08:07:04;;;;;;;6.28;3.40;;;;;;;26.82;43.33;95226.41;4914614;29;20055;-68
2021/05/26 08:09:30;;;;;;;4.90;3.20;;;;;;;26.81;43.83;95225.66;4934810;29;20426;-70
2021/05/26 08:11:55;;;;;;;4.35;2.75;;;;;;;26.79;43.12;95222.72;4934306;29;20024;-68
2021/05/26 08:14:22;;;;;;;3.80;3.10;;;;;;;26.77;43.70;95214.28;4934461;29;20036;-68
2021/05/26 08:16:49;;;;;;;4.32;3.13;;;;;;;26.75;43.06;95215.34;4934523;29;20099;-68
2021/05/26 08:19:15;;;;;;;3.88;2.75;;;;;;;26.76;44.15;95222.31;4933938;29;20522;-68
2021/05/26 08:21:40;;;;;;;6.10;3.67;;;;;;;26.74;43.18;95224.81;4915695;29;20031;-69
2021/05/26 08:24:07;;;;;;;4.07;3.03;;;;;;;26.75;42.90;95209.88;4933689;29;20032;-68
2021/05/26 08:26:33;;;;;;;3.30;2.60;;;;;;;26.76;43.33;95210.06;4933619;29;20050;-68
2021/05/26 08:28:58;;;;;;;4.72;3.13;;;;;;;26.74;43.08;95202.91;4913950;29;20507;-68
2021/05/26 08:31:24;;;;;;;3.53;2.78;;;;;;;26.71;43.74;95210.19;4917287;29;20063;-70
2021/05/26 08:33:49;;;;;;;4.20;2.85;;;;;;;26.71;42.83;95214.91;4934542;29;20036;-69
2021/05/26 08:36:14;;;;;;;5.38;3.08;;;;;;;26.62;43.54;95201.63;4930601;29;20032;-69
2021/05/26 08:38:40;;;;;;;3.75;3.35;;;;;;;26.69;43.39;95201.75;4915595;29;20027;-68
2021/05/26 08:41:06;;;;;;;4.72;3.17;;;;;;;26.67;43.02;95214.50;4934184;29;20507;-69
2021/05/26 08:43:36;;;;;;;3.60;3.00;;;;;;;26.67;42.79;95209.03;4917281;29;20035;-70
2021/05/26 08:46:05;;;;;;;5.82;2.90;;;;;;;26.67;42.98;95203.56;4901810;29;20116;-69
2021/05/26 08:48:31;;;;;;;5.75;2.80;;;;;;;26.66;43.11;95202.06;4900853;29;20031;-69
2021/05/26 08:50:57;;;;;;;5.63;3.00;;;;;;;26.70;43.04;95202.50;4916810;29;20031;-68
2021/05/26 08:53:22;;;;;;;4.30;3.13;;;;;;;26.68;43.00;95205.75;4917003;29;20038;-71
2021/05/26 08:55:48;;;;;;;3.58;2.35;;;;;;;26.53;42.79;95193.81;4917066;29;20040;-69
2021/05/26 08:58:13;;;;;;;4.43;2.75;;;;;;;26.60;43.13;95193.22;4916386;29;20033;-71
2021/05/26 09:00:39;;;;;;;5.70;3.10;;;;;;;26.64;42.68;95194.38;4911094;29;20034;-65
2021/05/26 09:03:05;;;;;;;4.07;3.10;;;;;;;26.62;42.66;95193.41;4911109;29;20050;-64
2021/05/26 09:05:31;;;;;;;6.25;3.85;;;;;;;26.51;43.06;95201.84;4928566;29;20031;-65
2021/05/26 09:07:56;;;;;;;4.93;3.22;;;;;;;26.50;42.91;95201.09;4920607;29;20500;-66
2021/05/26 09:10:22;;;;;;;5.20;3.45;;;;;;;26.50;43.60;95200.34;4932372;29;20468;-68
2021/05/26 09:12:48;;;;;;;6.68;3.33;;;;;;;26.51;43.75;95197.09;4928440;29;20558;-71
2021/05/26 09:15:17;;;;;;;8.43;4.10;;;;;;;26.53;43.84;95188.34;4931495;29;20499;-70
2021/05/26 09:17:51;;;;;;;19.90;9.40;;;;;;;26.59;43.15;95187.00;4924100;29;20024;-67
2021/05/26 09:20:27;;;;;;;17.02;8.65;;;;;;;26.63;43.73;95181.19;4914138;29;20027;-69
2021/05/26 09:23:10;;;;;;;14.60;7.85;;;;;;;26.68;43.40;95194.81;4928577;29;20470;-64
2021/05/26 09:25:49;;;;;;;29.95;13.13;;;;;;;26.75;43.51;95182.47;4929413;29;20027;-66
2021/05/26 09:28:18;;;;;;;17.48;8.07;;;;;;;26.83;42.78;95175.81;4931903;29;20023;-69
2021/05/26 09:30:45;;;;;;;20.75;9.25;;;;;;;26.85;43.67;95171.28;4928058;29;20052;-72
2021/05/26 09:33:35;;;;;;;21.50;9.85;;;;;;;26.99;44.24;95170.03;4911740;29;20118;-70
2021/05/26 09:36:11;;;;;;;19.30;9.05;;;;;;;27.09;44.84;95167.59;4939191;29;20063;-67
2021/05/26 09:38:38;;;;;;;16.27;8.32;;;;;;;27.22;44.43;95162.81;4933132;29;20123;-67
2021/05/26 09:41:22;;;;;;;16.50;8.00;;;;;;;27.31;43.96;95163.13;4937482;29;20035;-66
2021/05/26 09:43:49;;;;;;;13.73;7.45;;;;;;;27.38;43.81;95156.22;4935161;29;20979;-66
2021/05/26 09:46:20;;;;;;;10.98;6.53;;;;;;;27.46;43.37;95157.06;4937760;29;20439;-65
2021/05/26 09:49:04;;;;;;;10.63;5.93;;;;;;;27.59;42.88;95148.81;4931169;29;20046;-65
2021/05/26 09:51:31;;;;;;;9.80;5.85;;;;;;;27.70;42.89;95148.53;4933525;29;20024;-66
2021/05/26 09:54:30;;;;;;;8.63;5.55;;;;;;;27.77;42.28;95143.13;4930505;29;20051;-65
2021/05/26 09:57:07;;;;;;;8.50;5.18;;;;;;;27.83;42.32;95136.25;4902378;29;20028;-66
2021/05/26 09:59:34;;;;;;;9.55;5.00;;;;;;;27.75;42.04;95118.94;4932454;29;20027;-67
2021/05/26 10:01:59;;;;;;;7.72;4.78;;;;;;;28.00;42.14;95139.31;4929202;29;20515;-68
2021/05/26 10:04:25;;;;;;;8.75;5.20;;;;;;;28.13;42.11;95142.03;4931489;29;20152;-71
2021/05/26 10:06:54;;;;;;;7.80;5.10;;;;;;;28.15;42.11;95128.47;4927106;29;20419;-68
2021/05/26 10:09:24;;;;;;;7.97;5.50;;;;;;;28.24;41.76;95138.97;4930366;29;20038;-69
2021/05/26 10:11:52;;;;;;;;;;;;;;;28.27;41.99;95124.19;4911801;29;20098;-66
2021/05/26 10:14:18;;;;;;;7.90;5.25;;;;;;;28.11;41.38;95100.63;4931571;29;20025;-68
2021/05/26 10:16:43;;;;;;;7.25;5.32;;;;;;;28.29;41.65;95116.84;4909886;29;20496;-67
2021/05/26 10:19:09;;;;;;;6.95;4.85;;;;;;;28.35;41.18;95108.47;4930370;29;20028;-68
2021/05/26 10:21:35;;;;;;;8.10;4.72;;;;;;;28.40;41.41;95099.34;4931271;29;20027;-67
2021/05/26 10:24:05;;;;;;;7.32;4.72;;;;;;;28.60;41.38;95112.31;4914042;29;20083;-66
2021/05/26 10:26:50;;;;;;;7.80;5.10;;;;;;;28.68;41.17;95102.09;4930728;29;20023;-69
2021/05/26 10:29:28;;;;;;;10.50;5.10;;;;;;;28.76;40.73;95098.84;4930564;29;20054;-69
2021/05/26 10:31:57;;;;;;;8.50;4.88;;;;;;;28.84;40.46;95094.09;4919387;29;20540;-68
2021/05/26 10:34:46;;;;;;;6.97;4.77;;;;;;;28.79;40.56;95097.75;4922928;29;20503;-71
2021/05/26 10:37:14;;;;;;;7.47;4.57;;;;;;;28.81;40.76;95086.94;4932066;29;20131;-64
2021/05/26 10:39:39;;;;;;;9.57;5.20;;;;;;;28.82;40.60;95090.44;4926557;29;20042;-64
2021/05/26 10:42:05;;;;;;;7.53;4.70;;;;;;;28.96;39.77;95078.75;4926669;29;20043;-64
2021/05/26 10:44:59;;;;;;;7.38;5.07;;;;;;;29.01;40.32;95075.09;4913393;29;20514;-64
2021/05/26 10:47:37;;;;;;;9.75;6.00;;;;;;;29.03;39.72;95061.56;4926473;29;20042;-63
2021/05/26 10:50:04;;;;;;;7.57;5.60;;;;;;;29.05;40.62;95064.50;4929977;29;20052;-64
2021/05/26 10:52:29;;;;;;;8.93;5.10;;;;;;;29.04;39.85;95057.50;4928952;29;20031;-65
2021/05/26 10:54:55;;;;;;;9.63;5.28;;;;;;;29.05;40.63;95056.25;4930553;29;20537;-64
2021/05/26 10:57:21;;;;;;;4.95;4.40;;;;;;;28.98;40.43;95045.94;4927040;29;20032;-64
2021/05/26 11:00:21;;;;;;;7.60;5.30;;;;;;;28.94;39.95;95048.34;4930535;29;20032;-64
2021/05/26 11:03:28;;;;;;;7.80;4.75;;;;;;;28.85;40.05;95040.59;4926583;29;20047;-65
2021/05/26 11:06:13;;;;;;;8.88;4.90;;;;;;;28.77;40.25;95039.84;4925298;29;20786;-64
2021/05/26 11:11:25;;;;;;;5.30;4.35;;;;;;;28.67;40.45;95035.41;4926123;29;20094;-64
2021/05/26 11:14:16;;;;;;;5.75;4.38;;;;;;;28.63;40.63;95023.25;4923431;29;20042;-66
2021/05/26 11:16:49;;;;;;;7.78;4.15;;;;;;;28.61;40.56;95036.78;4920024;29;20044;-65
2021/05/26 11:19:21;;;;;;;6.78;4.53;;;;;;;28.58;40.86;95037.88;4926553;29;20472;-64
2021/05/26 11:21:57;;;;;;;9.48;4.75;;;;;;;28.49;41.05;95019.16;4910935;29;20408;-64
2021/05/26 11:24:26;;;;;;;6.55;4.50;;;;;;;28.46;40.86;95014.75;4929171;29;20185;-64
2021/05/26 11:26:51;;;;;;;5.50;4.47;;;;;;;28.42;41.22;95003.38;4927830;29;20035;-64
2021/05/26 11:29:26;;;;;;;8.32;5.15;;;;;;;28.36;41.50;95011.78;4912160;29;20435;-64
2021/05/26 11:32:04;;;;;;;6.55;4.78;;;;;;;28.35;41.04;94993.09;4926800;29;20035;-64
2021/05/26 11:34:30;;;;;;;6.93;4.60;;;;;;;28.28;41.64;95010.25;4917348;29;20028;-64
2021/05/26 11:36:55;;;;;;;7.15;4.50;;;;;;;28.28;41.28;94999.28;4918822;29;20024;-65
2021/05/26 11:39:30;;;;;;;6.88;4.80;;;;;;;28.22;41.63;94990.47;4923225;29;20028;-64